createdAt,value
2019-06-26T00:01:13.049Z,51.70
2019-06-26T00:03:59.784Z,52.15
2019-06-26T00:06:28.246Z,54.42
2019-06-26T00:08:56.708Z,49.98
2019-06-26T00:11:32.467Z,50.90
2019-06-26T00:14:01.014Z,55.98
2019-06-26T00:16:29.574Z,56.15
2019-06-26T00:18:58.448Z,65.30
2019-06-26T00:21:27.143Z,62.65
2019-06-26T00:23:55.873Z,68.55
2019-06-26T00:26:24.361Z,65.32
2019-06-26T00:28:52.940Z,67.25
2019-06-26T00:31:21.471Z,62.43
2019-06-26T00:33:50.223Z,59.60
2019-06-26T00:36:18.710Z,62.43
2019-06-26T00:39:07.733Z,67.45
2019-06-26T00:41:36.267Z,64.00
2019-06-26T00:44:04.865Z,66.07
2019-06-26T00:46:33.451Z,62.50
2019-06-26T00:49:02.010Z,75.10
2019-06-26T00:51:30.598Z,70.45
2019-06-26T00:54:02.680Z,76.02
2019-06-26T00:56:31.142Z,68.45
2019-06-26T00:58:59.694Z,75.80
2019-06-26T01:01:28.323Z,74.30
2019-06-26T01:03:58.558Z,71.60
2019-06-26T01:06:45.211Z,72.97
2019-06-26T01:09:14.722Z,65.52
2019-06-26T01:11:47.535Z,74.40
2019-06-26T01:14:16.024Z,72.78
2019-06-26T01:16:44.492Z,65.32
2019-06-26T01:19:13.033Z,74.92
2019-06-26T01:21:45.356Z,60.70
2019-06-26T01:24:26.110Z,59.30
2019-06-26T01:26:54.807Z,59.17
2019-06-26T01:29:23.324Z,49.33
2019-06-26T01:31:51.817Z,52.00
2019-06-26T01:34:23.422Z,57.00
2019-06-26T01:39:22.928Z,57.20
2019-06-26T01:41:55.626Z,55.17
2019-06-26T01:44:24.089Z,57.80
2019-06-26T01:46:52.568Z,49.45
2019-06-26T01:49:21.222Z,56.50
2019-06-26T01:51:52.749Z,52.53
2019-06-26T01:56:49.192Z,54.42
2019-06-26T01:59:17.719Z,52.43
2019-06-26T02:01:46.275Z,54.10
2019-06-26T02:04:15.795Z,54.23
2019-06-26T02:06:44.532Z,48.25
2019-06-26T02:09:13.004Z,53.05
2019-06-26T02:11:47.683Z,57.17
2019-06-26T02:14:29.920Z,48.48
2019-06-26T02:16:46.400Z,48.05
2019-06-26T02:19:16.633Z,48.15
2019-06-26T02:21:45.179Z,58.52
2019-06-26T02:24:16.728Z,53.17
2019-06-26T02:29:13.169Z,50.52
2019-06-26T02:31:41.654Z,47.88
2019-06-26T02:34:10.205Z,50.20
2019-06-26T02:36:39.033Z,51.55
2019-06-26T02:39:07.738Z,48.02
2019-06-26T02:41:36.444Z,55.90
2019-06-26T02:44:05.059Z,61.70
2019-06-26T02:46:33.522Z,49.38
2019-06-26T02:49:06.685Z,49.77
2019-06-26T02:51:35.205Z,51.40
2019-06-26T02:54:05.151Z,53.98
2019-06-26T02:56:33.643Z,45.63
2019-06-26T02:59:02.119Z,54.38
2019-06-26T03:01:30.642Z,50.80
2019-06-26T03:03:59.118Z,56.10
2019-06-26T03:06:27.581Z,54.00
2019-06-26T03:08:56.056Z,51.70
2019-06-26T03:11:24.890Z,49.85
2019-06-26T03:13:53.456Z,49.08
2019-06-26T03:16:21.994Z,49.83
2019-06-26T03:19:02.774Z,54.35
2019-06-26T03:21:31.236Z,52.17
2019-06-26T03:24:02.851Z,66.82
2019-06-26T03:28:59.085Z,52.83
2019-06-26T03:31:27.616Z,53.95
2019-06-26T03:33:56.172Z,42.90
2019-06-26T03:36:24.635Z,45.17
2019-06-26T03:38:53.140Z,56.18
2019-06-26T03:41:21.656Z,54.15
2019-06-26T03:43:50.361Z,44.08
2019-06-26T03:46:18.809Z,55.67
2019-06-26T03:48:47.306Z,49.08
2019-06-26T03:51:15.758Z,46.88
2019-06-26T03:53:44.283Z,48.87
2019-06-26T03:56:12.818Z,51.83
2019-06-26T03:58:41.287Z,59.95
2019-06-26T04:01:09.746Z,52.90
2019-06-26T04:03:38.573Z,54.15
2019-06-26T04:06:07.124Z,49.13
2019-06-26T04:08:35.564Z,56.80
2019-06-26T04:11:04.409Z,57.08
2019-06-26T04:13:32.933Z,56.65
2019-06-26T04:16:01.556Z,50.35
2019-06-26T04:18:30.547Z,54.05
2019-06-26T04:20:59.100Z,47.98
2019-06-26T04:23:27.630Z,52.70
2019-06-26T04:25:56.272Z,53.38
2019-06-26T04:28:24.740Z,49.88
2019-06-26T04:30:53.303Z,50.67
2019-06-26T04:33:22.005Z,53.28
2019-06-26T04:35:50.453Z,57.48
2019-06-26T04:38:18.975Z,51.23
2019-06-26T04:40:47.637Z,49.08
2019-06-26T04:43:17.217Z,48.83
2019-06-26T04:45:57.689Z,53.87
2019-06-26T04:48:16.210Z,56.85
2019-06-26T04:50:44.674Z,56.58
2019-06-26T04:53:13.168Z,53.50
2019-06-26T04:55:41.703Z,51.23
2019-06-26T04:58:10.721Z,46.55
2019-06-26T05:00:39.245Z,54.70
2019-06-26T05:03:14.177Z,51.08
2019-06-26T05:05:44.525Z,53.28
2019-06-26T05:08:12.808Z,46.02
2019-06-26T05:10:41.347Z,52.15
2019-06-26T05:13:12.955Z,49.38
2019-06-26T05:18:17.366Z,58.48
2019-06-26T05:20:45.950Z,49.60
2019-06-26T05:23:16.620Z,53.40
2019-06-26T05:25:45.247Z,52.10
2019-06-26T05:28:14.000Z,47.53
2019-06-26T05:30:42.590Z,51.48
2019-06-26T05:33:15.032Z,47.10
2019-06-26T05:35:43.499Z,57.15
2019-06-26T05:38:12.027Z,61.00
2019-06-26T05:40:40.733Z,55.03
2019-06-26T05:43:09.367Z,52.35
2019-06-26T05:45:37.835Z,57.60
2019-06-26T05:48:06.456Z,47.53
2019-06-26T05:50:34.903Z,57.58
2019-06-26T05:53:03.709Z,53.15
2019-06-26T05:55:32.573Z,57.98
2019-06-26T05:58:01.037Z,59.23
2019-06-26T06:00:29.766Z,54.83
2019-06-26T06:02:59.373Z,58.50
2019-06-26T06:05:27.845Z,56.13
2019-06-26T06:07:56.311Z,52.50
2019-06-26T06:10:25.091Z,54.90
2019-06-26T06:12:53.683Z,53.80
2019-06-26T06:15:22.230Z,77.10
2019-06-26T06:17:51.055Z,50.60
2019-06-26T06:20:25.364Z,49.35
2019-06-26T06:23:00.290Z,46.00
2019-06-26T06:25:48.349Z,47.15
2019-06-26T06:28:17.194Z,45.45
2019-06-26T06:31:00.884Z,46.13
2019-06-26T06:33:29.460Z,37.88
2019-06-26T06:35:57.919Z,37.98
2019-06-26T06:38:26.390Z,44.27
2019-06-26T06:40:55.065Z,39.08
2019-06-26T06:43:29.898Z,37.48
2019-06-26T06:45:58.431Z,35.13
2019-06-26T06:48:26.999Z,39.83
2019-06-26T06:50:55.520Z,31.93
2019-06-26T06:53:26.313Z,30.72
2019-06-26T06:55:54.901Z,29.20
2019-06-26T06:58:30.065Z,29.75
2019-06-26T07:00:57.238Z,26.95
2019-06-26T07:03:25.799Z,26.55
2019-06-26T07:05:54.332Z,28.35
2019-06-26T07:08:22.819Z,24.52
2019-06-26T07:10:51.367Z,29.35
2019-06-26T07:13:19.913Z,26.37
2019-06-26T07:15:48.430Z,22.87
2019-06-26T07:18:17.094Z,25.10
2019-06-26T07:20:45.548Z,22.48
2019-06-26T07:23:14.224Z,20.85
2019-06-26T07:25:42.745Z,20.35
2019-06-26T07:28:11.246Z,23.70
2019-06-26T07:30:39.729Z,20.37
2019-06-26T07:33:08.708Z,18.77
2019-06-26T07:35:37.162Z,18.90
2019-06-26T07:38:05.613Z,18.52
2019-06-26T07:40:46.525Z,18.45
2019-06-26T07:43:16.635Z,16.10
2019-06-26T07:45:45.432Z,19.65
2019-06-26T07:48:14.005Z,16.27
2019-06-26T07:50:42.481Z,17.07
2019-06-26T07:53:11.963Z,16.52
2019-06-26T07:55:40.737Z,18.27
2019-06-26T07:58:09.265Z,16.50
2019-06-26T08:00:40.270Z,19.90
2019-06-26T08:05:43.167Z,16.65
2019-06-26T08:08:14.575Z,19.07
2019-06-26T08:10:42.841Z,18.98
2019-06-26T08:13:15.076Z,19.17
2019-06-26T08:15:43.584Z,17.90
2019-06-26T08:18:12.148Z,17.65
2019-06-26T08:20:51.854Z,20.80
2019-06-26T08:23:13.064Z,20.60
2019-06-26T08:25:41.703Z,20.17
2019-06-26T08:28:10.174Z,25.40
2019-06-26T08:30:38.620Z,21.45
2019-06-26T08:33:19.281Z,22.20
2019-06-26T08:35:47.814Z,21.75
2019-06-26T08:38:21.525Z,21.65
2019-06-26T08:40:56.327Z,24.27
2019-06-26T08:43:52.255Z,26.23
2019-06-26T08:46:20.823Z,26.68
2019-06-26T08:48:51.971Z,26.37
2019-06-26T08:51:20.027Z,27.55
2019-06-26T08:54:09.918Z,27.50
2019-06-26T08:56:38.411Z,32.40
2019-06-26T08:59:25.443Z,33.23
2019-06-26T09:02:10.289Z,29.57
2019-06-26T09:04:38.847Z,31.25
2019-06-26T09:07:07.326Z,26.52
2019-06-26T09:09:35.781Z,31.82
2019-06-26T09:12:05.403Z,33.63
2019-06-26T09:14:33.972Z,28.02
2019-06-26T09:17:07.735Z,30.85
2019-06-26T09:19:36.268Z,33.42
2019-06-26T09:22:04.839Z,33.60
2019-06-26T09:24:33.361Z,36.15
2019-06-26T09:27:01.930Z,35.35
2019-06-26T09:29:30.463Z,39.18
2019-06-26T09:31:58.998Z,36.10
2019-06-26T09:34:27.604Z,38.60
2019-06-26T09:36:56.172Z,41.55
2019-06-26T09:39:24.699Z,39.05
2019-06-26T09:41:59.013Z,45.52
2019-06-26T09:44:27.472Z,41.73
2019-06-26T09:46:55.938Z,39.90
2019-06-26T09:49:36.671Z,40.65
2019-06-26T09:52:05.426Z,46.10
2019-06-26T09:54:33.956Z,42.67
2019-06-26T09:57:02.584Z,46.50
2019-06-26T09:59:32.129Z,42.17
2019-06-26T10:02:00.935Z,46.53
2019-06-26T10:04:29.465Z,35.48
2019-06-26T10:07:01.043Z,35.17
2019-06-26T10:12:01.028Z,35.90
2019-06-26T10:14:46.732Z,34.20
2019-06-26T10:16:59.724Z,30.65
2019-06-26T10:19:28.453Z,36.93
2019-06-26T10:21:56.921Z,38.95
2019-06-26T10:24:27.596Z,31.17
2019-06-26T10:26:56.890Z,38.95
2019-06-26T10:29:25.377Z,32.55
2019-06-26T10:31:55.079Z,34.45
2019-06-26T10:34:23.664Z,35.13
2019-06-26T10:36:52.228Z,33.80
2019-06-26T10:39:21.059Z,31.35
2019-06-26T10:41:49.573Z,24.98
2019-06-26T10:44:18.099Z,26.90
2019-06-26T10:46:58.946Z,29.00
2019-06-26T10:49:28.092Z,28.50
2019-06-26T10:51:56.702Z,29.63
2019-06-26T10:54:25.362Z,31.23
2019-06-26T10:56:53.894Z,27.15
2019-06-26T10:59:26.864Z,29.23
2019-06-26T11:02:05.708Z,31.75
2019-06-26T11:04:34.185Z,30.17
2019-06-26T11:07:02.764Z,26.23
2019-06-26T11:09:31.297Z,28.52
2019-06-26T11:12:00.931Z,31.95
2019-06-26T11:14:29.380Z,28.27
2019-06-26T11:16:57.868Z,25.88
2019-06-26T11:19:39.478Z,30.68
2019-06-26T11:22:02.242Z,33.55
2019-06-26T11:24:31.018Z,29.98
2019-06-26T11:26:59.558Z,31.20
2019-06-26T11:29:31.148Z,31.42
2019-06-26T11:32:02.728Z,29.45
2019-06-26T11:34:31.206Z,28.70
2019-06-26T11:37:04.300Z,32.88
2019-06-26T11:39:29.909Z,32.25
2019-06-26T11:42:10.736Z,25.02
2019-06-26T11:44:39.296Z,39.30
2019-06-26T11:47:07.846Z,36.33
2019-06-26T11:49:36.444Z,37.90
2019-06-26T11:52:10.332Z,42.78
2019-06-26T11:54:38.855Z,39.10
2019-06-26T11:57:07.438Z,45.63
2019-06-26T11:59:35.967Z,39.20
2019-06-26T12:02:04.676Z,39.60
2019-06-26T12:04:33.682Z,46.18
2019-06-26T12:07:03.636Z,33.98
2019-06-26T12:09:32.188Z,35.28
2019-06-26T12:12:01.037Z,35.20
2019-06-26T12:14:29.570Z,35.70
2019-06-26T12:16:58.053Z,33.28
2019-06-26T12:19:41.894Z,29.50
2019-06-26T12:22:12.131Z,29.35
2019-06-26T12:24:58.830Z,36.70
2019-06-26T12:27:27.340Z,37.67
2019-06-26T12:30:04.219Z,27.35
2019-06-26T12:32:42.212Z,27.17
2019-06-26T12:35:07.161Z,27.32
2019-06-26T12:37:37.978Z,28.38
2019-06-26T12:40:07.007Z,25.60
2019-06-26T12:42:35.525Z,27.22
2019-06-26T12:45:07.965Z,29.45
2019-06-26T12:47:36.493Z,25.10
2019-06-26T12:50:09.113Z,24.55
2019-06-26T12:52:37.668Z,23.38
2019-06-26T12:55:07.068Z,25.35
2019-06-26T12:57:35.607Z,27.22
2019-06-26T13:00:07.481Z,27.50
2019-06-26T13:02:35.997Z,29.65
2019-06-26T13:05:06.090Z,24.92
2019-06-26T13:07:34.845Z,39.30
2019-06-26T13:10:07.327Z,25.55
2019-06-26T13:12:37.707Z,23.55
2019-06-26T13:15:08.414Z,16.05
2019-06-26T13:17:37.006Z,20.60
2019-06-26T13:20:09.979Z,19.17
2019-06-26T13:22:37.864Z,23.27
2019-06-26T13:25:16.623Z,23.12
2019-06-26T13:27:45.200Z,22.32
2019-06-26T13:30:21.256Z,18.05
2019-06-26T13:32:49.948Z,22.90
2019-06-26T13:35:18.418Z,21.40
2019-06-26T13:37:46.952Z,24.20
2019-06-26T13:40:15.427Z,20.85
2019-06-26T13:42:45.222Z,19.62
2019-06-26T13:45:14.819Z,18.27
2019-06-26T13:47:43.327Z,28.45
2019-06-26T13:50:11.982Z,25.82
2019-06-26T13:52:40.438Z,22.02
2019-06-26T13:55:12.085Z,20.72
2019-06-26T13:57:40.539Z,22.00
2019-06-26T14:00:09.431Z,25.32
2019-06-26T14:02:47.621Z,22.75
2019-06-26T14:05:17.678Z,27.32
2019-06-26T14:07:46.136Z,21.48
2019-06-26T14:10:19.179Z,23.75
2019-06-26T14:12:50.905Z,20.52
2019-06-26T14:15:19.606Z,22.87
2019-06-26T14:17:48.195Z,21.57
2019-06-26T14:20:16.986Z,19.37
2019-06-26T14:22:45.668Z,21.12
2019-06-26T14:25:14.715Z,25.68
2019-06-26T14:27:43.250Z,24.57
2019-06-26T14:30:16.547Z,27.82
2019-06-26T14:32:48.172Z,20.75
2019-06-26T14:35:17.769Z,23.47
2019-06-26T14:37:46.215Z,22.05
2019-06-26T14:40:18.211Z,24.87
2019-06-26T14:42:46.986Z,19.90
2019-06-26T14:45:19.266Z,20.00
2019-06-26T14:47:47.784Z,17.87
2019-06-26T14:50:17.591Z,18.48
2019-06-26T14:52:46.228Z,20.97
2019-06-26T14:55:16.975Z,22.77
2019-06-26T14:57:45.510Z,14.63
2019-06-26T15:00:18.544Z,15.95
2019-06-26T15:02:47.340Z,20.08
2019-06-26T15:05:17.112Z,24.67
2019-06-26T15:07:45.644Z,25.35
2019-06-26T15:10:14.449Z,17.80
2019-06-26T15:12:44.074Z,19.52
2019-06-26T15:15:12.880Z,24.05
2019-06-26T15:17:41.446Z,22.27
2019-06-26T15:20:10.168Z,22.75
2019-06-26T15:22:38.703Z,22.35
2019-06-26T15:25:17.124Z,20.75
2019-06-26T15:27:45.673Z,23.07
2019-06-26T15:30:19.754Z,16.52
2019-06-26T15:32:57.990Z,20.52
2019-06-26T15:35:26.480Z,19.95
2019-06-26T15:37:54.930Z,17.90
2019-06-26T15:40:23.604Z,21.20
2019-06-26T15:42:55.168Z,20.50
2019-06-26T15:45:25.954Z,21.55
2019-06-26T15:47:54.576Z,21.48
2019-06-26T15:50:23.183Z,18.42
2019-06-26T15:52:56.865Z,18.00
2019-06-26T15:55:28.900Z,23.22
2019-06-26T15:57:57.434Z,24.15
2019-06-26T16:00:27.036Z,21.00
2019-06-26T16:03:02.743Z,19.60
2019-06-26T16:05:31.213Z,19.07
2019-06-26T16:07:59.799Z,19.25
2019-06-26T16:10:28.318Z,18.98
2019-06-26T16:13:09.016Z,17.95
2019-06-26T16:15:38.189Z,16.75
2019-06-26T16:18:08.376Z,21.70
2019-06-26T16:20:36.930Z,21.37
2019-06-26T16:23:12.793Z,12.37
2019-06-26T16:25:41.358Z,16.48
2019-06-26T16:28:09.826Z,19.98
2019-06-26T16:30:38.427Z,14.23
2019-06-26T16:33:07.091Z,18.75
2019-06-26T16:35:35.696Z,22.55
2019-06-26T16:38:12.654Z,16.90
2019-06-26T16:40:41.214Z,15.63
2019-06-26T16:43:12.792Z,17.20
2019-06-26T16:45:41.322Z,16.37
2019-06-26T16:48:09.818Z,15.32
2019-06-26T16:50:38.368Z,14.70
2019-06-26T16:53:06.878Z,16.50
2019-06-26T16:55:35.440Z,19.42
2019-06-26T16:58:03.976Z,14.47
2019-06-26T17:00:32.956Z,20.97
2019-06-26T17:03:01.505Z,15.48
2019-06-26T17:05:30.055Z,17.30
2019-06-26T17:07:58.635Z,13.78
2019-06-26T17:10:27.107Z,18.67
2019-06-26T17:13:07.998Z,15.65
2019-06-26T17:15:36.546Z,16.75
2019-06-26T17:18:05.095Z,18.00
2019-06-26T17:20:33.699Z,18.40
2019-06-26T17:23:06.593Z,14.58
2019-06-26T17:25:36.535Z,15.48
2019-06-26T17:28:05.114Z,14.58
2019-06-26T17:30:33.565Z,18.75
2019-06-26T17:33:20.273Z,16.37
2019-06-26T17:35:48.794Z,18.12
2019-06-26T17:38:23.704Z,16.27
2019-06-26T17:40:52.261Z,13.90
2019-06-26T17:43:24.367Z,16.77
2019-06-26T17:45:54.018Z,17.30
2019-06-26T17:48:26.017Z,20.27
2019-06-26T17:50:54.550Z,17.10
2019-06-26T17:53:23.021Z,14.55
2019-06-26T17:55:51.644Z,13.65
2019-06-26T17:58:20.163Z,19.07
2019-06-26T18:00:48.646Z,17.73
2019-06-26T18:03:20.557Z,16.05
2019-06-26T18:05:49.041Z,19.55
2019-06-26T18:08:17.583Z,15.35
2019-06-26T18:10:46.213Z,22.45
2019-06-26T18:13:14.691Z,19.12
2019-06-26T18:15:43.160Z,14.30
2019-06-26T18:18:11.710Z,17.60
2019-06-26T18:20:40.262Z,15.08
2019-06-26T18:23:11.860Z,16.05
2019-06-26T18:25:40.914Z,15.53
2019-06-26T18:28:09.451Z,14.83
2019-06-26T18:30:37.926Z,21.93
2019-06-26T18:33:14.870Z,15.48
2019-06-26T18:35:43.445Z,10.78
2019-06-26T18:38:17.208Z,15.25
2019-06-26T18:40:45.850Z,14.15
2019-06-26T18:43:15.189Z,11.35
2019-06-26T18:45:43.818Z,14.68
2019-06-26T18:48:12.558Z,15.83
2019-06-26T18:50:41.025Z,17.07
2019-06-26T18:53:09.820Z,16.00
2019-06-26T18:55:38.408Z,20.25
2019-06-26T18:58:06.955Z,16.45
2019-06-26T19:00:38.650Z,19.77
2019-06-26T19:03:07.369Z,13.60
2019-06-26T19:05:35.906Z,18.75
2019-06-26T19:08:05.498Z,16.60
2019-06-26T19:10:34.079Z,12.37
2019-06-26T19:13:02.878Z,14.98
2019-06-26T19:15:31.402Z,10.90
2019-06-26T19:18:00.001Z,13.03
2019-06-26T19:20:28.504Z,11.78
2019-06-26T19:23:01.272Z,10.15
2019-06-26T19:25:30.098Z,12.82
2019-06-26T19:27:58.666Z,17.87
2019-06-26T19:30:27.624Z,14.70
2019-06-26T19:33:00.250Z,13.68
2019-06-26T19:35:28.865Z,10.85
2019-06-26T19:38:01.237Z,12.00
2019-06-26T19:40:29.743Z,10.13
2019-06-26T19:43:02.729Z,10.10
2019-06-26T19:45:31.272Z,12.50
2019-06-26T19:48:03.080Z,10.18
2019-06-26T19:50:31.538Z,11.55
2019-06-26T19:53:00.331Z,11.60
2019-06-26T19:55:31.595Z,10.05
2019-06-26T19:58:00.061Z,13.28
2019-06-26T20:00:28.599Z,9.95
2019-06-26T20:03:12.482Z,12.45
2019-06-26T20:05:40.934Z,9.83
2019-06-26T20:08:12.487Z,11.43
2019-06-26T20:13:11.928Z,12.13
2019-06-26T20:15:40.390Z,13.98
2019-06-26T20:18:09.056Z,9.23
2019-06-26T20:20:37.723Z,11.43
2019-06-26T20:23:14.870Z,11.05
2019-06-26T20:25:43.333Z,10.13
2019-06-26T20:28:11.886Z,12.40
2019-06-26T20:30:41.411Z,10.98
2019-06-26T20:33:09.959Z,12.05
2019-06-26T20:35:38.991Z,13.60
2019-06-26T20:38:07.618Z,12.47
2019-06-26T20:40:36.081Z,13.13
2019-06-26T20:43:07.562Z,12.07
2019-06-26T20:48:04.157Z,15.48
2019-06-26T20:50:32.645Z,10.45
2019-06-26T20:53:01.275Z,15.40
2019-06-26T20:55:29.865Z,11.30
2019-06-26T20:57:58.401Z,15.48
2019-06-26T21:00:26.970Z,10.30
2019-06-26T21:02:55.429Z,17.52
2019-06-26T21:05:23.905Z,13.18
2019-06-26T21:07:52.530Z,11.60
2019-06-26T21:10:20.996Z,13.68
2019-06-26T21:13:01.662Z,9.30
2019-06-26T21:15:30.208Z,14.65
2019-06-26T21:17:58.676Z,10.28
2019-06-26T21:20:27.474Z,13.38
2019-06-26T21:22:56.028Z,15.32
2019-06-26T21:25:24.656Z,11.65
2019-06-26T21:27:53.347Z,12.05
2019-06-26T21:30:22.054Z,14.63
2019-06-26T21:33:08.981Z,13.05
2019-06-26T21:35:37.446Z,12.40
2019-06-26T21:38:05.918Z,14.40
2019-06-26T21:40:34.484Z,15.03
2019-06-26T21:43:09.209Z,12.58
2019-06-26T21:45:37.692Z,11.85
2019-06-26T21:48:06.313Z,7.67
2019-06-26T21:50:34.836Z,9.88
2019-06-26T21:53:04.478Z,13.75
2019-06-26T21:55:35.253Z,13.70
2019-06-26T21:58:03.862Z,10.70
2019-06-26T22:00:34.010Z,11.93
2019-06-26T22:03:06.363Z,13.53
2019-06-26T22:05:34.969Z,11.93
2019-06-26T22:08:03.736Z,12.68
2019-06-26T22:10:32.236Z,13.85
2019-06-26T22:13:00.786Z,13.90
2019-06-26T22:15:29.594Z,11.30
2019-06-26T22:17:58.264Z,11.90
2019-06-26T22:20:26.803Z,11.28
2019-06-26T22:22:58.494Z,12.98
2019-06-26T22:27:55.047Z,17.00
2019-06-26T22:30:24.042Z,16.85
2019-06-26T22:32:59.825Z,11.05
2019-06-26T22:35:28.364Z,16.75
2019-06-26T22:37:56.841Z,14.98
2019-06-26T22:40:25.322Z,11.40
2019-06-26T22:42:53.789Z,14.58
2019-06-26T22:45:26.465Z,13.28
2019-06-26T22:47:55.213Z,15.72
2019-06-26T22:50:43.465Z,12.82
2019-06-26T22:53:13.163Z,15.25
2019-06-26T22:55:41.762Z,16.15
2019-06-26T22:58:10.225Z,10.23
2019-06-26T23:00:38.806Z,14.00
2019-06-26T23:03:08.560Z,14.45
2019-06-26T23:05:37.043Z,11.08
2019-06-26T23:08:06.066Z,13.43
2019-06-26T23:10:34.526Z,9.58
2019-06-26T23:13:02.981Z,13.78
2019-06-26T23:15:31.558Z,11.83
2019-06-26T23:18:00.008Z,15.70
2019-06-26T23:20:28.456Z,14.25
2019-06-26T23:23:00.220Z,12.37
2019-06-26T23:25:28.866Z,14.33
2019-06-26T23:27:57.351Z,14.10
2019-06-26T23:30:25.843Z,11.10
2019-06-26T23:32:54.501Z,12.43
2019-06-26T23:35:23.037Z,16.97
2019-06-26T23:37:52.991Z,12.53
2019-06-26T23:40:21.452Z,14.50
2019-06-26T23:42:54.150Z,11.30
2019-06-26T23:45:22.799Z,13.03
2019-06-26T23:47:51.268Z,11.48
2019-06-26T23:50:19.733Z,23.90
2019-06-26T23:52:48.607Z,12.98
2019-06-26T23:55:17.170Z,14.30
2019-06-26T23:57:58.518Z,13.03
